Mark Center, OH

4:10 PM EST on January 28, 2015 (GMT -0500)
Hicksville | Change Station
CLOSE
Current Station
Personal Weather Station
Location: Hicksville, OH
Elevation: 774 ft
Nearby Weather Stations
Active Advisory: Freezing Rain Advisory

Elev 774 ft 41.30 °N, 84.76 °W | Updated 13 minutes ago

Partly Cloudy
Partly Cloudy
26.6 °F
Feels Like 27 °F
N
2.2
Wind Variable Wind from West

Today
High -- | Low -- °F
--% Chance of Precip.
Yesterday
High -- | Low -- °F
Precip. -- in
7:53 AM 5:49 PM
Waxing Gibbous, 68% visible
Pressure 30.31 in
Visibility 10.0 miles
Clouds Clear
Windchill 27 °F
Dew Point 17 °F
Humidity 67%
Rainfall 1.13 in
Snow Depth Not available.
UV 1 out of 12
Pollen .10 out of 12
Air Quality Not available.
Flu Activity Not available.
METAR KDFI 282053Z AUTO 17007KT 10SM CLR M03/M11 A3027 RMK AO2 SLP263 T10331111 56023

More Conditions Fewer Conditions

Pressure 30.31 in
Visibility 10.0 miles
Clouds Clear
Windchill 27 °F
Dew Point 17 °F
Humidity 67%
Rainfall 1.13 in
Snow Depth Not available.
UV 1 out of 12
Pollen .10 out of 12
Air Quality Not available.
Flu Activity Not available.
METAR KDFI 282053Z AUTO 17007KT 10SM CLR M03/M11 A3027 RMK AO2 SLP263 T10331111 56023

More Conditions Fewer Conditions

10-Day Weather Forecast

Almanac

Astronomy

Jan. 28, 2015 Rise Set
Actual Time
Civil Twilight
Nautical Twilight
Astronomical Twilight
Moon
Length of Visible Light
Length of Day
Tomorrow will be .
, % of the Moon is Illuminated

Today's Extremes

State Highs State Lows

Community

WunderPhotos

Upload Photos

1,791,263 photos uploaded!

WunderBlogs® & News

Nearby

Air Quality

  Air Quality AQ Index Pollutant
Not available.

Snow Depth

Station Depth Elevation

Earthquake Activity

City Distance Mag. Time & Date
Minimum magnitude displayed is 2.5.

Coastal Water Temperatures

Place Temperature

Nearby Weather Stations